Time;durP1;ratioP1;P1;durP2;ratioP2;P2;SDS_P1;SDS_P2;PMS_P1;PMS_P2;Temp;Humidity;BMP_temperature;BMP_pressure;BME280_temperature;BME280_humidity;BME280_pressure;Samples;Min_cycle;Max_cycle;Signal;HPM_P1;HPM_P2
2022/03/17 00:02:04;;;;;;;22.23;19.55;;;;;;;;;;5021541;28;88892;-74
2022/03/17 00:04:31;;;;;;;25.00;19.05;;;;;;;;;;5021565;28;89048;-76
2022/03/17 00:06:58;;;;;;;21.70;19.10;;;;;;;;;;5021183;28;90904;-75
2022/03/17 00:09:24;;;;;;;27.60;19.60;;;;;;;;;;5022934;28;89902;-74
2022/03/17 00:11:52;;;;;;;26.13;19.45;;;;;;;;;;5021217;28;89863;-76
2022/03/17 00:14:19;;;;;;;25.73;20.13;;;;;;;;;;5020520;28;89829;-75
2022/03/17 00:16:46;;;;;;;27.88;19.33;;;;;;;;;;5021476;28;89291;-75
2022/03/17 00:19:13;;;;;;;26.55;19.70;;;;;;;;;;5021295;28;90702;-74
2022/03/17 00:21:39;;;;;;;24.73;19.27;;;;;;;;;;5020858;28;90203;-78
2022/03/17 00:24:08;;;;;;;29.02;20.10;;;;;;;;;;5036480;28;91732;-75
2022/03/17 00:26:35;;;;;;;26.65;19.35;;;;;;;;;;5020731;28;90412;-76
2022/03/17 00:29:03;;;;;;;24.17;18.80;;;;;;;;;;5019902;28;91758;-75
2022/03/17 00:31:29;;;;;;;26.05;20.23;;;;;;;;;;4988086;28;89350;-76
2022/03/17 00:33:56;;;;;;;27.15;19.85;;;;;;;;;;5020992;28;89960;-75
2022/03/17 00:36:22;;;;;;;24.85;19.83;;;;;;;;;;5020891;28;90361;-75
2022/03/17 00:38:48;;;;;;;28.38;19.67;;;;;;;;;;5020217;28;88893;-76
2022/03/17 00:41:16;;;;;;;25.00;19.88;;;;;;;;;;5020439;28;89034;-74
2022/03/17 00:43:42;;;;;;;25.70;20.00;;;;;;;;;;5020539;28;89197;-74
2022/03/17 00:46:08;;;;;;;24.00;20.23;;;;;;;;;;5020180;28;90835;-76
2022/03/17 00:48:35;;;;;;;25.45;20.38;;;;;;;;;;5020736;28;90044;-75
2022/03/17 00:51:01;;;;;;;24.52;20.02;;;;;;;;;;5020741;28;88975;-74
2022/03/17 00:53:27;;;;;;;23.33;19.45;;;;;;;;;;5023742;28;90286;-75
2022/03/17 00:55:54;;;;;;;27.38;20.42;;;;;;;;;;5020879;28;89202;-75
2022/03/17 00:58:22;;;;;;;27.15;20.48;;;;;;;;;;5021160;28;90293;-74
2022/03/17 01:00:49;;;;;;;25.63;20.33;;;;;;;;;;5020959;28;90267;-73
2022/03/17 01:03:15;;;;;;;30.67;21.08;;;;;;;;;;5020711;28;88968;-75
2022/03/17 01:05:42;;;;;;;24.65;20.52;;;;;;;;;;5020749;28;89682;-73
2022/03/17 01:08:08;;;;;;;27.58;19.42;;;;;;;;;;5020442;28;88839;-74
2022/03/17 01:10:34;;;;;;;26.08;20.67;;;;;;;;;;5019568;28;90178;-74
2022/03/17 01:13:03;;;;;;;23.63;20.27;;;;;;;;;;5020467;28;90365;-73
2022/03/17 01:15:30;;;;;;;27.08;19.80;;;;;;;;;;5023261;28;89293;-74
2022/03/17 01:17:57;;;;;;;41.75;20.48;;;;;;;;;;5016847;28;90790;-77
2022/03/17 01:20:23;;;;;;;23.05;19.52;;;;;;;;;;5020741;28;90045;-74
2022/03/17 01:22:49;;;;;;;27.10;20.45;;;;;;;;;;5021109;28;90112;-74
2022/03/17 01:25:16;;;;;;;25.33;20.60;;;;;;;;;;5020705;28;90215;-76
2022/03/17 01:27:42;;;;;;;29.02;20.10;;;;;;;;;;5019653;28;89759;-75
2022/03/17 01:30:09;;;;;;;23.73;20.23;;;;;;;;;;5020030;28;89137;-75
2022/03/17 01:32:38;;;;;;;26.15;20.63;;;;;;;;;;5020029;28;90055;-74
2022/03/17 01:35:07;;;;;;;25.70;20.38;;;;;;;;;;5022845;28;89118;-76
2022/03/17 01:37:34;;;;;;;25.83;20.70;;;;;;;;;;5018902;28;89723;-73
2022/03/17 01:40:00;;;;;;;29.73;20.20;;;;;;;;;;5019926;28;89787;-74
2022/03/17 01:42:27;;;;;;;29.08;20.83;;;;;;;;;;5019363;28;89099;-75
2022/03/17 01:44:55;;;;;;;28.77;20.92;;;;;;;;;;5020011;28;88980;-74
2022/03/17 01:47:28;;;;;;;27.00;21.23;;;;;;;;;;5019794;28;90007;-75
2022/03/17 01:49:55;;;;;;;26.00;20.85;;;;;;;;;;5019840;28;88874;-76
2022/03/17 01:52:22;;;;;;;27.42;21.05;;;;;;;;;;5018352;28;90552;-76
2022/03/17 01:54:49;;;;;;;30.13;21.60;;;;;;;;;;5028707;28;89256;-74
2022/03/17 01:57:15;;;;;;;32.75;21.20;;;;;;;;;;5042247;28;89133;-74
2022/03/17 01:59:42;;;;;;;30.13;21.75;;;;;;;;;;5035034;27;88987;-75
2022/03/17 02:02:09;;;;;;;29.52;21.52;;;;;;;;;;5039393;28;89182;-75
2022/03/17 02:04:36;;;;;;;29.20;21.55;;;;;;;;;;5035133;28;89674;-75
2022/03/17 02:07:06;;;;;;;26.50;21.27;;;;;;;;;;5038977;28;89729;-75
2022/03/17 02:09:33;;;;;;;30.98;21.77;;;;;;;;;;5038974;28;88894;-76
2022/03/17 02:14:49;;;;;;;29.75;21.27;;;;;;;;;;5036447;27;89174;-74
2022/03/17 02:17:15;;;;;;;24.98;20.80;;;;;;;;;;5038868;28;88914;-75
2022/03/17 02:19:44;;;;;;;28.05;21.38;;;;;;;;;;5042053;27;89003;-74
2022/03/17 02:22:12;;;;;;;29.98;22.30;;;;;;;;;;5038704;27;88771;-73
2022/03/17 02:27:25;;;;;;;32.25;21.05;;;;;;;;;;5038675;28;90323;-74
2022/03/17 02:29:52;;;;;;;28.30;22.23;;;;;;;;;;5038185;28;89590;-75
2022/03/17 02:32:20;;;;;;;38.92;21.98;;;;;;;;;;5038722;28;89102;-73
2022/03/17 02:34:46;;;;;;;35.00;22.50;;;;;;;;;;5037783;28;89532;-74
2022/03/17 02:37:13;;;;;;;32.58;23.58;;;;;;;;;;5038316;28;89121;-75
2022/03/17 02:39:39;;;;;;;31.92;23.60;;;;;;;;;;5038427;28;90656;-75
2022/03/17 02:42:06;;;;;;;41.95;23.95;;;;;;;;;;5041460;27;90106;-73
2022/03/17 02:44:32;;;;;;;37.92;23.90;;;;;;;;;;5026059;28;90530;-73
2022/03/17 02:46:59;;;;;;;34.40;25.30;;;;;;;;;;5038372;28;89776;-75
2022/03/17 02:49:26;;;;;;;39.25;24.75;;;;;;;;;;5038224;28;89366;-74
2022/03/17 02:51:53;;;;;;;36.92;24.88;;;;;;;;;;5037180;28;91383;-74
2022/03/17 02:54:19;;;;;;;36.97;25.35;;;;;;;;;;5033903;28;89489;-73
2022/03/17 02:56:46;;;;;;;37.13;25.58;;;;;;;;;;5034086;28;89344;-73
2022/03/17 02:59:12;;;;;;;36.42;24.85;;;;;;;;;;5038213;28;90347;-72
2022/03/17 03:01:39;;;;;;;42.85;27.15;;;;;;;;;;5036882;28;91610;-72
2022/03/17 03:04:07;;;;;;;35.00;25.67;;;;;;;;;;5040437;28;89243;-73
2022/03/17 03:06:33;;;;;;;38.58;26.63;;;;;;;;;;5038184;27;89733;-73
2022/03/17 03:08:59;;;;;;;40.22;26.75;;;;;;;;;;5030825;28;90440;-73
2022/03/17 03:11:26;;;;;;;45.38;27.50;;;;;;;;;;5035801;28;90413;-73
2022/03/17 03:13:52;;;;;;;38.45;25.85;;;;;;;;;;5036668;28;89791;-73
2022/03/17 03:16:18;;;;;;;31.42;22.17;;;;;;;;;;5038142;28;89375;-74
2022/03/17 03:18:45;;;;;;;24.33;16.25;;;;;;;;;;5038172;28;90294;-72
2022/03/17 03:21:12;;;;;;;11.98;10.55;;;;;;;;;;5038061;28;88966;-74
2022/03/17 03:23:38;;;;;;;14.32;10.40;;;;;;;;;;5036228;28;90767;-73
2022/03/17 03:26:05;;;;;;;10.65;9.48;;;;;;;;;;5036002;28;88919;-72
2022/03/17 03:28:31;;;;;;;9.18;8.07;;;;;;;;;;5038981;28;89214;-73
2022/03/17 03:30:57;;;;;;;8.55;6.60;;;;;;;;;;5039389;28;87891;-73
2022/03/17 03:33:24;;;;;;;7.03;6.07;;;;;;;;;;5037265;28;87877;-73
2022/03/17 03:38:37;;;;;;;5.85;4.10;;;;;;;;;;5034207;28;88670;-73
2022/03/17 03:41:03;;;;;;;7.28;5.30;;;;;;;;;;5038864;28;89242;-73
2022/03/17 03:43:30;;;;;;;5.70;5.10;;;;;;;;;;5037564;28;89567;-73
2022/03/17 03:45:57;;;;;;;5.88;5.28;;;;;;;;;;5041372;28;88087;-73
2022/03/17 03:48:23;;;;;;;7.32;4.75;;;;;;;;;;5038903;28;88720;-73
2022/03/17 03:50:49;;;;;;;6.75;5.22;;;;;;;;;;5037007;27;88179;-73
2022/03/17 03:53:16;;;;;;;5.57;4.75;;;;;;;;;;5040297;28;89011;-73
2022/03/17 03:55:42;;;;;;;5.85;5.25;;;;;;;;;;5041028;28;87681;-73
2022/03/17 03:58:08;;;;;;;5.30;4.80;;;;;;;;;;5042005;28;88246;-73
2022/03/17 04:00:35;;;;;;;5.47;4.97;;;;;;;;;;5036335;28;90554;-75
2022/03/17 04:03:05;;;;;;;8.20;5.70;;;;;;;;;;5041285;28;89625;-74
2022/03/17 04:05:34;;;;;;;5.40;4.90;;;;;;;;;;5039026;28;88039;-73
2022/03/17 04:08:02;;;;;;;6.22;5.35;;;;;;;;;;5036485;28;89379;-74
2022/03/17 04:10:29;;;;;;;6.82;5.70;;;;;;;;;;5033951;28;87851;-74
2022/03/17 04:12:56;;;;;;;7.13;6.10;;;;;;;;;;5041605;28;89008;-75
2022/03/17 04:15:22;;;;;;;6.97;6.28;;;;;;;;;;5038193;28;89007;-74
2022/03/17 04:17:50;;;;;;;9.10;6.90;;;;;;;;;;5041789;28;87903;-75
2022/03/17 04:20:16;;;;;;;11.85;6.63;;;;;;;;;;5042001;28;89307;-74
2022/03/17 04:22:43;;;;;;;7.65;6.95;;;;;;;;;;5041585;28;89059;-73
2022/03/17 04:25:09;;;;;;;8.63;7.30;;;;;;;;;;5036487;28;88645;-75
2022/03/17 04:27:36;;;;;;;16.50;8.52;;;;;;;;;;5041068;28;88710;-73
2022/03/17 04:30:02;;;;;;;13.55;9.75;;;;;;;;;;5044540;28;89087;-73
2022/03/17 04:32:29;;;;;;;17.08;9.70;;;;;;;;;;5041393;28;88045;-75
2022/03/17 04:34:55;;;;;;;15.10;10.57;;;;;;;;;;5036512;28;88575;-73
2022/03/17 04:37:22;;;;;;;14.80;10.05;;;;;;;;;;5040440;28;89512;-74
2022/03/17 04:39:48;;;;;;;17.67;11.43;;;;;;;;;;5040416;28;89295;-75
2022/03/17 04:42:15;;;;;;;17.88;12.30;;;;;;;;;;5039969;28;89317;-76
2022/03/17 04:44:41;;;;;;;19.17;12.20;;;;;;;;;;5035796;28;90390;-75
2022/03/17 04:47:07;;;;;;;22.08;11.98;;;;;;;;;;5040298;28;89365;-76
2022/03/17 04:49:34;;;;;;;21.73;11.85;;;;;;;;;;5040102;28;89195;-74
2022/03/17 04:52:00;;;;;;;20.13;9.68;;;;;;;;;;5043067;28;89351;-74
2022/03/17 04:54:27;;;;;;;14.23;8.00;;;;;;;;;;5041595;28;89865;-75
2022/03/17 04:56:53;;;;;;;18.95;9.23;;;;;;;;;;5041574;28;89757;-75
2022/03/17 04:59:21;;;;;;;16.25;8.32;;;;;;;;;;5040391;28;90118;-74
2022/03/17 05:01:47;;;;;;;16.08;7.13;;;;;;;;;;5040297;27;90780;-74
2022/03/17 05:04:14;;;;;;;14.13;6.93;;;;;;;;;;5041445;28;87940;-75
2022/03/17 05:06:40;;;;;;;15.15;5.78;;;;;;;;;;5041525;28;89230;-74
2022/03/17 05:09:07;;;;;;;19.75;5.28;;;;;;;;;;5041921;28;87485;-75
2022/03/17 05:11:33;;;;;;;12.50;4.78;;;;;;;;;;5041382;28;89614;-74
2022/03/17 05:13:59;;;;;;;13.05;4.97;;;;;;;;;;5044277;28;88866;-74
2022/03/17 05:16:26;;;;;;;24.38;5.15;;;;;;;;;;5039941;28;88631;-74
2022/03/17 05:18:52;;;;;;;8.80;3.70;;;;;;;;;;5041244;28;89296;-76
2022/03/17 05:21:19;;;;;;;11.23;3.78;;;;;;;;;;5041404;28;87845;-75
2022/03/17 05:23:45;;;;;;;16.58;4.05;;;;;;;;;;5041002;28;89262;-74
2022/03/17 05:26:11;;;;;;;12.82;3.65;;;;;;;;;;5039913;28;90525;-75
2022/03/17 05:28:38;;;;;;;14.70;3.90;;;;;;;;;;5041351;28;89093;-75
2022/03/17 05:31:05;;;;;;;20.13;3.45;;;;;;;;;;5041016;28;88568;-75
2022/03/17 05:33:31;;;;;;;9.45;3.00;;;;;;;;;;5043936;28;90062;-75
2022/03/17 05:35:57;;;;;;;12.60;3.20;;;;;;;;;;5041022;28;88053;-74
2022/03/17 05:38:24;;;;;;;13.25;3.72;;;;;;;;;;5041140;28;89495;-74
2022/03/17 05:40:51;;;;;;;15.88;3.22;;;;;;;;;;5040575;28;89943;-75
2022/03/17 05:43:18;;;;;;;12.82;2.63;;;;;;;;;;5040846;28;87958;-74
2022/03/17 05:45:44;;;;;;;13.50;2.60;;;;;;;;;;5040831;28;89372;-75
2022/03/17 05:48:11;;;;;;;11.73;3.03;;;;;;;;;;5040420;28;89253;-75
2022/03/17 05:50:38;;;;;;;11.23;2.92;;;;;;;;;;5040549;28;88396;-74
2022/03/17 05:53:05;;;;;;;12.23;2.92;;;;;;;;;;5041003;28;88923;-74
2022/03/17 05:55:32;;;;;;;11.50;3.38;;;;;;;;;;5043976;28;89360;-74
2022/03/17 05:57:59;;;;;;;11.55;3.30;;;;;;;;;;5040524;28;89144;-75
2022/03/17 06:00:26;;;;;;;10.07;2.90;;;;;;;;;;5040125;28;89782;-74
2022/03/17 06:02:53;;;;;;;6.78;2.90;;;;;;;;;;5040838;28;88016;-74
2022/03/17 06:05:20;;;;;;;14.35;3.60;;;;;;;;;;5040200;28;89152;-74
2022/03/17 06:07:48;;;;;;;10.20;2.65;;;;;;;;;;5040522;28;89224;-74
2022/03/17 06:10:15;;;;;;;13.90;3.17;;;;;;;;;;5039229;28;87896;-73
2022/03/17 06:12:43;;;;;;;8.77;2.30;;;;;;;;;;5040084;28;88036;-72
2022/03/17 06:15:11;;;;;;;12.45;3.00;;;;;;;;;;5040431;28;88993;-74
2022/03/17 06:17:42;;;;;;;17.33;3.00;;;;;;;;;;5043795;28;87789;-74
2022/03/17 06:20:10;;;;;;;7.72;2.40;;;;;;;;;;5039240;28;88279;-74
2022/03/17 06:22:38;;;;;;;17.95;2.45;;;;;;;;;;5040612;28;88277;-74
2022/03/17 06:25:05;;;;;;;19.52;2.80;;;;;;;;;;5040259;28;88464;-76
2022/03/17 06:27:31;;;;;;;15.88;2.45;;;;;;;;;;5040541;28;87944;-75
2022/03/17 06:29:57;;;;;;;11.32;2.20;;;;;;;;;;5040010;28;88795;-74
2022/03/17 06:32:26;;;;;;;15.05;2.80;;;;;;;;;;5039058;28;91364;-74
2022/03/17 06:34:52;;;;;;;17.20;2.13;;;;;;;;;;5040055;28;89491;-74
2022/03/17 06:37:18;;;;;;;14.93;2.55;;;;;;;;;;5039808;28;88172;-75
2022/03/17 06:39:45;;;;;;;13.02;2.63;;;;;;;;;;5043105;28;89139;-75
2022/03/17 06:42:11;;;;;;;12.73;2.88;;;;;;;;;;5039985;28;88216;-74
2022/03/17 06:44:37;;;;;;;11.90;2.67;;;;;;;;;;5038900;28;90437;-75
2022/03/17 06:47:04;;;;;;;14.55;2.40;;;;;;;;;;5040343;28;88466;-75
2022/03/17 06:49:30;;;;;;;13.57;2.38;;;;;;;;;;5039886;28;88139;-74
2022/03/17 06:51:58;;;;;;;11.90;2.50;;;;;;;;;;5039896;28;88074;-71
2022/03/17 06:54:25;;;;;;;12.88;2.85;;;;;;;;;;5039365;28;90528;-75
2022/03/17 06:56:52;;;;;;;12.80;2.55;;;;;;;;;;5040156;28;88003;-73
2022/03/17 06:59:18;;;;;;;21.38;3.10;;;;;;;;;;5039845;28;89538;-73
2022/03/17 07:01:44;;;;;;;15.50;2.70;;;;;;;;;;5042479;28;90116;-73
2022/03/17 07:04:11;;;;;;;14.23;3.00;;;;;;;;;;5038169;28;89681;-74
2022/03/17 07:06:37;;;;;;;15.18;2.80;;;;;;;;;;5039058;28;88713;-72
2022/03/17 07:09:04;;;;;;;16.45;2.60;;;;;;;;;;5038445;28;89112;-72
2022/03/17 07:11:30;;;;;;;16.52;2.45;;;;;;;;;;5040224;28;89099;-73
2022/03/17 07:13:57;;;;;;;18.38;3.13;;;;;;;;;;5039526;28;88994;-73
2022/03/17 07:16:23;;;;;;;13.40;2.83;;;;;;;;;;5039788;28;88409;-73
2022/03/17 07:18:50;;;;;;;11.98;2.53;;;;;;;;;;5038722;28;90448;-72
2022/03/17 07:21:24;;;;;;;15.00;2.40;;;;;;;;;;5039570;28;88231;-73
2022/03/17 07:23:50;;;;;;;20.60;2.83;;;;;;;;;;5042225;28;89526;-73
2022/03/17 07:26:18;;;;;;;13.18;2.60;;;;;;;;;;5042704;28;89077;-72
2022/03/17 07:28:44;;;;;;;13.30;2.50;;;;;;;;;;5043313;28;88373;-71
2022/03/17 07:31:11;;;;;;;9.77;2.30;;;;;;;;;;5043122;28;88873;-74
2022/03/17 07:33:38;;;;;;;15.68;2.00;;;;;;;;;;5042687;28;90194;-72
2022/03/17 07:36:04;;;;;;;16.42;2.28;;;;;;;;;;5043643;28;87137;-74
2022/03/17 07:38:31;;;;;;;14.20;2.08;;;;;;;;;;5041920;28;88946;-73
2022/03/17 07:40:57;;;;;;;15.13;1.90;;;;;;;;;;5042838;28;89706;-73
2022/03/17 07:43:25;;;;;;;10.23;1.70;;;;;;;;;;5045112;28;89436;-73
2022/03/17 07:46:12;;;;;;;7.65;1.75;;;;;;;;;;5042425;28;88641;-73
2022/03/17 07:49:13;;;;;;;6.82;1.42;;;;;;;;;;5041621;28;91051;-73
2022/03/17 07:51:42;;;;;;;13.63;2.15;;;;;;;;;;5041479;28;90601;-71
2022/03/17 07:54:08;;;;;;;7.88;1.63;;;;;;;;;;5042684;28;88929;-71
2022/03/17 07:56:36;;;;;;;4.68;1.23;;;;;;;;;;5042239;28;88913;-73
2022/03/17 07:59:02;;;;;;;7.40;1.45;;;;;;;;;;5042287;27;89312;-72
2022/03/17 08:01:29;;;;;;;12.10;1.58;;;;;;;;;;5042264;28;88657;-72
2022/03/17 08:03:55;;;;;;;9.90;1.70;;;;;;;;;;5042547;28;88044;-72
2022/03/17 08:06:23;;;;;;;7.82;1.52;;;;;;;;;;5045061;28;89837;-72
2022/03/17 08:08:49;;;;;;;8.27;2.00;;;;;;;;;;5041465;28;88723;-72
2022/03/17 08:11:16;;;;;;;13.25;1.80;;;;;;;;;;5042198;28;89819;-72
2022/03/17 08:13:43;;;;;;;12.75;2.63;;;;;;;;;;5041153;28;89936;-72
2022/03/17 08:16:10;;;;;;;13.73;2.17;;;;;;;;;;5042196;28;88000;-73
2022/03/17 08:18:38;;;;;;;11.65;1.92;;;;;;;;;;5041539;28;89495;-72
2022/03/17 08:21:04;;;;;;;9.70;1.70;;;;;;;;;;5041198;28;90179;-74
2022/03/17 08:23:31;;;;;;;7.80;1.77;;;;;;;;;;5041549;28;89151;-72
2022/03/17 08:25:57;;;;;;;13.30;2.13;;;;;;;;;;5042625;28;90033;-71
2022/03/17 08:28:25;;;;;;;11.75;1.77;;;;;;;;;;5044953;28;89178;-72
2022/03/17 08:30:52;;;;;;;13.93;2.28;;;;;;;;;;5042091;28;88198;-72
2022/03/17 08:33:19;;;;;;;13.63;2.40;;;;;;;;;;5041284;28;90581;-72
2022/03/17 08:35:45;;;;;;;14.27;2.13;;;;;;;;;;5041722;28;87965;-72
2022/03/17 08:38:12;;;;;;;21.30;2.80;;;;;;;;;;5041526;28;88589;-74
2022/03/17 08:40:40;;;;;;;22.35;2.28;;;;;;;;;;5040833;28;88106;-71
2022/03/17 08:43:09;;;;;;;19.27;2.08;;;;;;;;;;5042057;28;88594;-72
2022/03/17 08:51:10;;;;;;;9.93;1.88;;;;;;;;;;5045125;27;87944;-74
2022/03/17 08:53:36;;;;;;;14.10;2.60;;;;;;;;;;5041561;28;88418;-75
2022/03/17 08:56:03;;;;;;;17.58;2.47;;;;;;;;;;5040430;28;90557;-74
2022/03/17 08:58:30;;;;;;;17.23;2.38;;;;;;;;;;5040996;28;89486;-73
2022/03/17 09:00:56;;;;;;;14.55;3.03;;;;;;;;;;5040990;28;89989;-74
2022/03/17 09:03:25;;;;;;;11.32;2.80;;;;;;;;;;5041046;27;89350;-75
2022/03/17 09:05:52;;;;;;;15.55;2.70;;;;;;;;;;5041429;28;89119;-73
2022/03/17 09:08:18;;;;;;;12.25;2.28;;;;;;;;;;5041304;28;90863;-73
2022/03/17 09:10:46;;;;;;;14.15;2.90;;;;;;;;;;5033756;28;88379;-72
2022/03/17 09:13:13;;;;;;;16.33;2.85;;;;;;;;;;5043942;28;88944;-73
2022/03/17 09:15:40;;;;;;;14.40;2.75;;;;;;;;;;5032648;28;89554;-74
2022/03/17 09:18:08;;;;;;;10.23;2.30;;;;;;;;;;5040719;27;89004;-73
2022/03/17 09:20:34;;;;;;;13.90;2.40;;;;;;;;;;5039095;28;88438;-73
2022/03/17 09:23:02;;;;;;;11.65;2.10;;;;;;;;;;5035893;28;89672;-73
2022/03/17 09:25:29;;;;;;;16.60;2.65;;;;;;;;;;5039245;28;89950;-73
2022/03/17 09:27:56;;;;;;;11.30;2.05;;;;;;;;;;5039764;27;88914;-73
2022/03/17 09:30:23;;;;;;;14.07;2.60;;;;;;;;;;5038705;28;87866;-74
2022/03/17 09:32:52;;;;;;;11.93;2.22;;;;;;;;;;5040782;28;89022;-74
2022/03/17 09:35:19;;;;;;;15.13;2.33;;;;;;;;;;5035807;28;89529;-73
2022/03/17 09:37:45;;;;;;;9.45;2.92;;;;;;;;;;5039816;28;89051;-73
2022/03/17 09:40:12;;;;;;;12.50;2.13;;;;;;;;;;5036517;28;88070;-71
2022/03/17 09:42:39;;;;;;;9.55;2.25;;;;;;;;;;5038999;28;88925;-74
2022/03/17 09:45:06;;;;;;;13.80;2.63;;;;;;;;;;5040444;28;89038;-73
2022/03/17 09:47:34;;;;;;;10.02;2.78;;;;;;;;;;5038546;28;89990;-73
2022/03/17 09:50:02;;;;;;;13.07;2.53;;;;;;;;;;5037556;28;87940;-72
2022/03/17 09:52:29;;;;;;;14.30;2.30;;;;;;;;;;5039480;28;88935;-73
2022/03/17 09:54:55;;;;;;;7.45;2.47;;;;;;;;;;5042978;28;90765;-73
2022/03/17 09:57:22;;;;;;;12.77;2.70;;;;;;;;;;5032039;28;89292;-74
2022/03/17 09:59:49;;;;;;;13.23;2.55;;;;;;;;;;5038137;28;88204;-77
2022/03/17 10:02:16;;;;;;;13.38;2.67;;;;;;;;;;5038959;28;88018;-73
2022/03/17 10:04:44;;;;;;;7.30;2.20;;;;;;;;;;5040344;28;89360;-76
2022/03/17 10:07:14;;;;;;;14.40;2.50;;;;;;;;;;5039559;28;90026;-75
2022/03/17 10:09:42;;;;;;;12.52;3.13;;;;;;;;;;5039113;28;87916;-75
2022/03/17 10:12:10;;;;;;;8.18;2.50;;;;;;;;;;5035771;28;91461;-73
2022/03/17 10:14:36;;;;;;;9.07;2.47;;;;;;;;;;5039524;28;88676;-72
2022/03/17 10:17:04;;;;;;;7.68;2.78;;;;;;;;;;5042997;28;87881;-73
2022/03/17 10:19:31;;;;;;;8.48;2.95;;;;;;;;;;5031393;28;90868;-73
2022/03/17 10:22:12;;;;;;;18.67;3.42;;;;;;;;;;5035588;28;89398;-72
2022/03/17 10:24:49;;;;;;;8.23;2.95;;;;;;;;;;5033016;28;89002;-72
2022/03/17 10:27:35;;;;;;;5.75;3.00;;;;;;;;;;5035206;28;89257;-75
2022/03/17 10:30:03;;;;;;;7.75;3.00;;;;;;;;;;5027929;28;87993;-75
2022/03/17 10:32:29;;;;;;;11.18;3.20;;;;;;;;;;5039207;28;88148;-74
2022/03/17 10:34:56;;;;;;;6.50;2.40;;;;;;;;;;5039375;28;89291;-73
2022/03/17 10:37:24;;;;;;;10.63;2.33;;;;;;;;;;5038822;28;89087;-73
2022/03/17 10:39:52;;;;;;;6.53;2.90;;;;;;;;;;5041630;28;88334;-74
2022/03/17 10:42:23;;;;;;;10.82;2.60;;;;;;;;;;5038664;28;88101;-73
2022/03/17 10:44:56;;;;;;;8.17;2.87;;;;;;;;;;5039062;27;90011;-72
2022/03/17 10:47:24;;;;;;;4.88;1.95;;;;;;;;;;5039223;28;88836;-75
2022/03/17 10:50:09;;;;;;;6.32;2.65;;;;;;;;;;5037181;28;88502;-73
2022/03/17 10:52:52;;;;;;;3.58;2.47;;;;;;;;;;5039208;28;89104;-75
2022/03/17 10:55:23;;;;;;;6.03;2.25;;;;;;;;;;5034122;28;87577;-73
2022/03/17 10:57:50;;;;;;;6.95;1.90;;;;;;;;;;5038204;28;89207;-74
2022/03/17 11:00:20;;;;;;;3.78;1.80;;;;;;;;;;5041080;27;87984;-74
2022/03/17 11:02:48;;;;;;;8.18;2.10;;;;;;;;;;5041386;28;90398;-74
2022/03/17 11:05:18;;;;;;;8.80;1.83;;;;;;;;;;5035367;28;89083;-74
2022/03/17 11:07:45;;;;;;;9.27;1.80;;;;;;;;;;5034879;28;89520;-76
2022/03/17 11:10:15;;;;;;;12.07;2.20;;;;;;;;;;5040875;27;87990;-74
2022/03/17 11:12:45;;;;;;;6.53;2.03;;;;;;;;;;5041491;28;92092;-72
2022/03/17 11:15:12;;;;;;;8.63;2.08;;;;;;;;;;5042485;28;90092;-74
2022/03/17 11:17:47;;;;;;;5.50;1.50;;;;;;;;;;5042671;27;87736;-73
2022/03/17 11:20:17;;;;;;;9.35;1.83;;;;;;;;;;5040509;27;88854;-73
2022/03/17 11:22:50;;;;;;;6.55;1.50;;;;;;;;;;5042256;27;89136;-72
2022/03/17 11:25:20;;;;;;;5.15;1.60;;;;;;;;;;5045616;28;88752;-73
2022/03/17 11:27:47;;;;;;;4.72;2.00;;;;;;;;;;5040703;28;91660;-71
2022/03/17 11:30:14;;;;;;;2.78;1.65;;;;;;;;;;5041681;28;88031;-73
2022/03/17 11:32:56;;;;;;;3.55;1.85;;;;;;;;;;5037824;28;89563;-72
2022/03/17 11:35:25;;;;;;;5.32;1.60;;;;;;;;;;5034395;28;88245;-74
2022/03/17 11:38:12;;;;;;;6.90;1.83;;;;;;;;;;5036975;28;89797;-72
2022/03/17 11:40:57;;;;;;;8.25;1.90;;;;;;;;;;5035353;28;87917;-73
2022/03/17 11:43:41;;;;;;;9.20;2.17;;;;;;;;;;5035147;28;88877;-73
2022/03/17 11:46:30;;;;;;;7.78;2.28;;;;;;;;;;5042972;28;87957;-71
2022/03/17 11:48:57;;;;;;;7.57;1.83;;;;;;;;;;5030629;28;89052;-74
2022/03/17 11:51:25;;;;;;;8.63;1.98;;;;;;;;;;5041324;28;88566;-75
2022/03/17 11:54:04;;;;;;;3.42;1.58;;;;;;;;;;5040229;28;90023;-73
2022/03/17 11:56:42;;;;;;;5.93;2.00;;;;;;;;;;5034725;28;88300;-74
2022/03/17 11:59:12;;;;;;;3.97;1.52;;;;;;;;;;5036634;28;88799;-74
2022/03/17 12:01:40;;;;;;;8.27;2.40;;;;;;;;;;5037440;27;88427;-76
2022/03/17 12:04:08;;;;;;;7.85;2.00;;;;;;;;;;5041936;27;89322;-74
2022/03/17 12:06:36;;;;;;;5.53;1.77;;;;;;;;;;5040796;28;90245;-74
2022/03/17 12:09:08;;;;;;;5.22;1.80;;;;;;;;;;5040870;28;88715;-74
2022/03/17 12:11:35;;;;;;;;;;;;;;;;;;5037296;27;88972;-74
2022/03/17 12:14:10;;;;;;;9.80;2.00;;;;;;;;;;5036885;28;117173;-74
2022/03/17 12:16:39;;;;;;;5.45;2.30;;;;;;;;;;5032856;28;90647;-73
2022/03/17 12:19:06;;;;;;;7.28;2.40;;;;;;;;;;5033288;28;89380;-74
2022/03/17 12:21:51;;;;;;;4.57;2.15;;;;;;;;;;5040940;28;89993;-74
2022/03/17 12:24:39;;;;;;;6.07;2.35;;;;;;;;;;5036011;28;88768;-74
2022/03/17 12:27:10;;;;;;;14.40;2.65;;;;;;;;;;5041822;28;87922;-74
2022/03/17 12:29:37;;;;;;;12.63;2.90;;;;;;;;;;5041139;28;89408;-75
2022/03/17 12:32:04;;;;;;;6.68;1.70;;;;;;;;;;5043500;28;88797;-75
2022/03/17 12:34:32;;;;;;;9.90;2.25;;;;;;;;;;5041303;28;88774;-75
2022/03/17 12:36:59;;;;;;;13.85;2.17;;;;;;;;;;5041813;28;88490;-74
2022/03/17 12:39:35;;;;;;;7.05;2.20;;;;;;;;;;5041262;27;88087;-74
2022/03/17 12:42:12;;;;;;;6.53;2.35;;;;;;;;;;5029864;28;88983;-75
2022/03/17 12:44:46;;;;;;;16.17;2.10;;;;;;;;;;5040549;28;89447;-75
2022/03/17 12:47:12;;;;;;;5.93;2.00;;;;;;;;;;5041163;28;88010;-74
2022/03/17 12:49:39;;;;;;;8.25;2.30;;;;;;;;;;5040044;28;87952;-76
2022/03/17 12:52:18;;;;;;;12.07;2.47;;;;;;;;;;5037287;28;92317;-75
2022/03/17 12:54:45;;;;;;;8.75;2.40;;;;;;;;;;5043622;28;88316;-76
2022/03/17 12:57:11;;;;;;;9.30;1.92;;;;;;;;;;5041044;28;89122;-76
2022/03/17 12:59:37;;;;;;;7.72;1.90;;;;;;;;;;5039401;28;89381;-75
2022/03/17 13:02:05;;;;;;;3.75;1.60;;;;;;;;;;5038802;28;90118;-75
2022/03/17 13:04:34;;;;;;;5.32;1.95;;;;;;;;;;5040758;28;89254;-76
2022/03/17 13:07:01;;;;;;;14.45;2.20;;;;;;;;;;5040769;28;88178;-76
2022/03/17 13:09:28;;;;;;;7.90;1.80;;;;;;;;;;5040566;28;88976;-76
2022/03/17 13:14:48;;;;;;;;;;;;;;;;;;5039719;28;88681;-72
2022/03/17 13:17:16;;;;;;;6.85;1.90;;;;;;;;;;5042955;28;117801;-74
2022/03/17 13:19:49;;;;;;;4.47;1.50;;;;;;;;;;5039762;28;87889;-75
2022/03/17 13:22:21;;;;;;;4.43;1.45;;;;;;;;;;5038157;27;88932;-75
2022/03/17 13:25:06;;;;;;;6.07;1.40;;;;;;;;;;5040163;28;90456;-74
2022/03/17 13:27:33;;;;;;;6.65;1.80;;;;;;;;;;5034755;28;88313;-75
2022/03/17 13:30:11;;;;;;;9.10;1.77;;;;;;;;;;5037211;28;88598;-74
2022/03/17 13:32:37;;;;;;;5.97;2.05;;;;;;;;;;5034947;28;89274;-74
2022/03/17 13:35:04;;;;;;;9.90;2.17;;;;;;;;;;5040043;28;88493;-75
2022/03/17 13:37:35;;;;;;;6.82;1.85;;;;;;;;;;5032723;28;89696;-74
2022/03/17 13:40:04;;;;;;;13.88;2.38;;;;;;;;;;5031690;28;89027;-74
2022/03/17 13:42:31;;;;;;;11.93;2.75;;;;;;;;;;5028006;28;89238;-75
2022/03/17 13:44:58;;;;;;;13.18;2.35;;;;;;;;;;5040387;27;89503;-75
2022/03/17 13:47:47;;;;;;;8.40;2.53;;;;;;;;;;5031236;28;88283;-75
2022/03/17 13:50:15;;;;;;;5.90;1.98;;;;;;;;;;5038034;28;90160;-75
2022/03/17 13:52:42;;;;;;;9.85;2.03;;;;;;;;;;5040838;28;88787;-75
2022/03/17 13:55:09;;;;;;;8.23;1.65;;;;;;;;;;5040307;28;88285;-74
2022/03/17 13:57:36;;;;;;;4.82;1.50;;;;;;;;;;5032249;28;89049;-74
2022/03/17 14:00:13;;;;;;;6.63;1.88;;;;;;;;;;5038307;28;91737;-74
2022/03/17 14:02:40;;;;;;;14.43;2.35;;;;;;;;;;5034491;28;87852;-75
2022/03/17 14:05:11;;;;;;;15.27;2.33;;;;;;;;;;5039404;28;90193;-75
2022/03/17 14:07:38;;;;;;;5.97;2.22;;;;;;;;;;5040263;28;88438;-76
2022/03/17 14:10:05;;;;;;;11.63;2.08;;;;;;;;;;5038249;28;88993;-74
2022/03/17 14:12:32;;;;;;;5.75;1.92;;;;;;;;;;5039763;28;89013;-74
2022/03/17 14:14:58;;;;;;;8.93;1.85;;;;;;;;;;5039765;28;88623;-74
2022/03/17 14:17:24;;;;;;;6.65;1.38;;;;;;;;;;5039570;27;89761;-75
2022/03/17 14:19:51;;;;;;;9.15;1.60;;;;;;;;;;5033943;28;88606;-75
2022/03/17 14:25:02;;;;;;;10.10;1.73;;;;;;;;;;5036239;28;90452;-75
2022/03/17 14:27:29;;;;;;;8.15;1.70;;;;;;;;;;5039787;28;88089;-74
2022/03/17 14:29:56;;;;;;;7.78;1.90;;;;;;;;;;5032975;28;89285;-74
2022/03/17 14:32:22;;;;;;;6.13;2.00;;;;;;;;;;5039704;28;88194;-75
2022/03/17 14:34:48;;;;;;;5.20;2.00;;;;;;;;;;5038866;27;88255;-75
2022/03/17 14:37:15;;;;;;;6.53;1.75;;;;;;;;;;5039609;28;89114;-74
2022/03/17 14:39:43;;;;;;;11.30;1.75;;;;;;;;;;5038508;28;89183;-75
2022/03/17 14:42:12;;;;;;;11.13;1.65;;;;;;;;;;5038049;28;88071;-75
2022/03/17 14:44:40;;;;;;;7.13;1.67;;;;;;;;;;5041343;27;87812;-75
2022/03/17 14:47:06;;;;;;;8.65;1.50;;;;;;;;;;5038815;28;88165;-79
2022/03/17 14:49:33;;;;;;;10.43;2.28;;;;;;;;;;5038647;28;89031;-72
2022/03/17 14:51:59;;;;;;;9.40;1.60;;;;;;;;;;5035982;28;89611;-72
2022/03/17 14:54:30;;;;;;;8.85;1.65;;;;;;;;;;5039445;27;88306;-73
2022/03/17 14:56:56;;;;;;;6.35;1.42;;;;;;;;;;5039059;27;87939;-74